Time;durP1;ratioP1;P1;durP2;ratioP2;P2;SDS_P1;SDS_P2;PMS_P1;PMS_P2;Temp;Humidity;BMP_temperature;BMP_pressure;BME280_temperature;BME280_humidity;BME280_pressure;Samples;Min_cycle;Max_cycle;Signal;HPM_P1;HPM_P2
2021/09/20 00:00:39;;;;;;;7.05;6.45;;;;;;;;;;2090214;28;20171;-56
2021/09/20 00:01:39;;;;;;;7.45;6.70;;;;;;;;;;2093478;28;20175;-56
2021/09/20 00:02:40;;;;;;;7.13;6.50;;;;;;;;;;2097962;28;20183;-57
2021/09/20 00:03:40;;;;;;;7.45;6.75;;;;;;;;;;2093993;28;20213;-54
2021/09/20 00:04:40;;;;;;;6.60;6.00;;;;;;;;;;2096933;28;20183;-55
2021/09/20 00:05:40;;;;;;;6.90;6.30;;;;;;;;;;2094189;28;20178;-53
2021/09/20 00:06:40;;;;;;;6.88;6.18;;;;;;;;;;2091821;28;20179;-51
2021/09/20 00:07:41;;;;;;;8.23;6.72;;;;;;;;;;2091151;28;20531;-52
2021/09/20 00:08:41;;;;;;;6.43;5.85;;;;;;;;;;2096809;28;20538;-51
2021/09/20 00:09:41;;;;;;;7.65;6.93;;;;;;;;;;2091675;28;20179;-53
2021/09/20 00:10:41;;;;;;;6.82;6.10;;;;;;;;;;2097321;28;20662;-53
2021/09/20 00:11:42;;;;;;;6.78;6.10;;;;;;;;;;2092214;28;20225;-52
2021/09/20 00:12:42;;;;;;;7.55;6.63;;;;;;;;;;2091179;28;20172;-54
2021/09/20 00:13:42;;;;;;;7.40;6.68;;;;;;;;;;2089942;28;20175;-51
2021/09/20 00:14:43;;;;;;;9.27;6.30;;;;;;;;;;2097425;28;20620;-53
2021/09/20 00:15:43;;;;;;;6.45;5.85;;;;;;;;;;2091739;28;20219;-50
2021/09/20 00:16:43;;;;;;;6.82;6.22;;;;;;;;;;2097701;28;20179;-50
2021/09/20 00:17:43;;;;;;;7.60;6.60;;;;;;;;;;2097896;28;20173;-51
2021/09/20 00:18:44;;;;;;;9.02;6.22;;;;;;;;;;2096013;28;20171;-54
2021/09/20 00:19:44;;;;;;;8.38;7.05;;;;;;;;;;2090067;28;20214;-53
2021/09/20 00:20:44;;;;;;;6.95;6.25;;;;;;;;;;2097042;28;20166;-52
2021/09/20 00:21:44;;;;;;;6.25;5.75;;;;;;;;;;2098181;28;20210;-52
2021/09/20 00:22:45;;;;;;;6.53;5.93;;;;;;;;;;2096570;28;20167;-56
2021/09/20 00:23:45;;;;;;;7.00;6.35;;;;;;;;;;2097330;28;20296;-54
2021/09/20 00:24:45;;;;;;;6.95;6.32;;;;;;;;;;2095364;28;20809;-52
2021/09/20 00:25:47;;;;;;;8.55;6.80;;;;;;;;;;2089727;28;20198;-51
2021/09/20 00:26:47;;;;;;;6.93;6.03;;;;;;;;;;2091880;28;20196;-55
2021/09/20 00:27:47;;;;;;;7.88;6.80;;;;;;;;;;2098138;28;20729;-55
2021/09/20 00:28:48;;;;;;;6.95;6.30;;;;;;;;;;2085235;28;20179;-50
2021/09/20 00:29:48;;;;;;;6.57;6.00;;;;;;;;;;2080744;28;20255;-54
2021/09/20 00:30:48;;;;;;;8.68;6.55;;;;;;;;;;2090916;28;20218;-51
2021/09/20 00:31:48;;;;;;;7.00;6.40;;;;;;;;;;2098026;28;20606;-52
2021/09/20 00:32:49;;;;;;;6.60;5.93;;;;;;;;;;2097041;28;20191;-56
2021/09/20 00:33:49;;;;;;;6.70;6.10;;;;;;;;;;2088267;28;20184;-56
2021/09/20 00:34:49;;;;;;;7.32;6.20;;;;;;;;;;2087943;28;20570;-56
2021/09/20 00:35:49;;;;;;;6.85;6.15;;;;;;;;;;2092565;28;20219;-53
2021/09/20 00:36:49;;;;;;;6.63;6.03;;;;;;;;;;2097147;28;20210;-55
2021/09/20 00:37:50;;;;;;;6.80;6.20;;;;;;;;;;2088126;28;20225;-52
2021/09/20 00:38:50;;;;;;;7.10;6.40;;;;;;;;;;2088607;28;20199;-53
2021/09/20 00:39:50;;;;;;;7.30;6.60;;;;;;;;;;2097399;28;20163;-50
2021/09/20 00:40:51;;;;;;;6.93;6.30;;;;;;;;;;2088682;28;20733;-50
2021/09/20 00:41:51;;;;;;;7.72;7.00;;;;;;;;;;2083013;28;20191;-56
2021/09/20 00:42:51;;;;;;;6.70;6.10;;;;;;;;;;2096544;28;20214;-54
2021/09/20 00:43:52;;;;;;;7.03;6.43;;;;;;;;;;2097031;28;20193;-55
2021/09/20 00:44:52;;;;;;;7.20;6.20;;;;;;;;;;2095025;28;20175;-56
2021/09/20 00:45:52;;;;;;;8.43;6.60;;;;;;;;;;2097096;28;20167;-59
2021/09/20 00:46:52;;;;;;;6.82;6.22;;;;;;;;;;2091301;28;20647;-57
2021/09/20 00:47:53;;;;;;;7.80;6.88;;;;;;;;;;2091581;28;20186;-56
2021/09/20 00:48:53;;;;;;;7.03;6.32;;;;;;;;;;2089556;28;20198;-58
2021/09/20 00:49:53;;;;;;;12.32;6.75;;;;;;;;;;2092033;28;20645;-52
2021/09/20 00:50:53;;;;;;;7.22;6.53;;;;;;;;;;2097214;28;20165;-52
2021/09/20 00:51:54;;;;;;;7.68;6.10;;;;;;;;;;2096749;28;20198;-59
2021/09/20 00:52:54;;;;;;;9.18;7.15;;;;;;;;;;2097471;28;20329;-57
2021/09/20 00:53:55;;;;;;;7.38;6.68;;;;;;;;;;2095463;28;20179;-52
2021/09/20 00:54:55;;;;;;;8.02;6.28;;;;;;;;;;2096746;28;20567;-50
2021/09/20 00:55:56;;;;;;;7.07;6.40;;;;;;;;;;2097449;28;20697;-56
2021/09/20 00:56:56;;;;;;;7.32;6.57;;;;;;;;;;2096168;28;20685;-57
2021/09/20 00:57:57;;;;;;;6.78;6.18;;;;;;;;;;2096418;28;20265;-52
2021/09/20 00:58:57;;;;;;;6.63;6.00;;;;;;;;;;2096773;28;20163;-54
2021/09/20 00:59:58;;;;;;;7.28;6.55;;;;;;;;;;2088194;28;20648;-55
2021/09/20 01:01:00;;;;;;;6.20;5.70;;;;;;;;;;2084461;28;20249;-58
2021/09/20 01:02:00;;;;;;;7.32;6.45;;;;;;;;;;2096944;28;20262;-57
2021/09/20 01:03:00;;;;;;;7.75;6.25;;;;;;;;;;2097613;28;20163;-60
2021/09/20 01:04:00;;;;;;;7.13;6.35;;;;;;;;;;2097085;28;20167;-58
2021/09/20 01:05:01;;;;;;;7.18;6.38;;;;;;;;;;2097967;28;20270;-55
2021/09/20 01:06:01;;;;;;;7.38;6.68;;;;;;;;;;2095605;28;20663;-54
2021/09/20 01:07:02;;;;;;;6.53;5.93;;;;;;;;;;2093140;28;20232;-59
2021/09/20 01:08:02;;;;;;;8.20;6.57;;;;;;;;;;2096585;28;20252;-56
2021/09/20 01:09:02;;;;;;;7.03;6.43;;;;;;;;;;2088762;28;20175;-55
2021/09/20 01:10:03;;;;;;;10.30;6.47;;;;;;;;;;2082257;28;20183;-51
2021/09/20 01:11:04;;;;;;;7.72;6.82;;;;;;;;;;2087662;28;20199;-55
2021/09/20 01:12:04;;;;;;;7.10;6.40;;;;;;;;;;2097652;28;20194;-54
2021/09/20 01:13:04;;;;;;;6.90;6.30;;;;;;;;;;2096983;28;20295;-57
2021/09/20 01:14:04;;;;;;;6.68;5.95;;;;;;;;;;2096036;28;20175;-54
2021/09/20 01:15:05;;;;;;;8.10;7.00;;;;;;;;;;2096649;28;20175;-55
2021/09/20 01:16:05;;;;;;;11.10;6.20;;;;;;;;;;2095375;28;20204;-56
2021/09/20 01:17:06;;;;;;;7.60;6.90;;;;;;;;;;2096460;28;20187;-57
2021/09/20 01:18:06;;;;;;;7.50;6.28;;;;;;;;;;2096382;28;20181;-54
2021/09/20 01:19:06;;;;;;;7.05;6.45;;;;;;;;;;2097644;28;20202;-55
2021/09/20 01:20:07;;;;;;;7.47;6.68;;;;;;;;;;2096876;28;20163;-52
2021/09/20 01:21:07;;;;;;;7.85;7.00;;;;;;;;;;2096855;28;20282;-54
2021/09/20 01:22:18;;;;;;;7.20;6.50;;;;;;;;;;2088515;28;20643;-56
2021/09/20 01:23:18;;;;;;;7.70;6.93;;;;;;;;;;2086884;28;20176;-54
2021/09/20 01:24:18;;;;;;;8.20;6.88;;;;;;;;;;2089411;28;20719;-53
2021/09/20 01:25:19;;;;;;;9.02;6.47;;;;;;;;;;2094833;28;20534;-54
2021/09/20 01:26:19;;;;;;;7.35;6.68;;;;;;;;;;2097807;28;20432;-53
2021/09/20 01:27:19;;;;;;;7.60;6.90;;;;;;;;;;2097239;28;20175;-57
2021/09/20 01:28:20;;;;;;;7.00;6.40;;;;;;;;;;2094027;28;20214;-56
2021/09/20 01:29:22;;;;;;;8.10;7.18;;;;;;;;;;2096098;28;20197;-57
2021/09/20 01:30:23;;;;;;;7.53;6.78;;;;;;;;;;2096148;28;20195;-54
2021/09/20 01:31:23;;;;;;;7.20;6.53;;;;;;;;;;2095040;28;20195;-56
2021/09/20 01:32:24;;;;;;;7.15;6.45;;;;;;;;;;2096797;28;20171;-57
2021/09/20 01:33:24;;;;;;;6.45;5.93;;;;;;;;;;2096035;28;20182;-58
2021/09/20 01:34:25;;;;;;;7.65;6.18;;;;;;;;;;2095444;28;20313;-54
2021/09/20 01:35:25;;;;;;;7.47;6.78;;;;;;;;;;2088640;28;20167;-56
2021/09/20 01:36:26;;;;;;;7.07;6.47;;;;;;;;;;2093181;28;20168;-57
2021/09/20 01:37:26;;;;;;;7.88;6.47;;;;;;;;;;2096301;28;20167;-54
2021/09/20 01:38:26;;;;;;;9.43;6.78;;;;;;;;;;2092632;28;20221;-56
2021/09/20 01:39:27;;;;;;;6.85;6.25;;;;;;;;;;2097153;28;20279;-56
2021/09/20 01:40:28;;;;;;;7.25;6.65;;;;;;;;;;2093045;28;20215;-52
2021/09/20 01:41:32;;;;;;;6.93;6.32;;;;;;;;;;2098307;28;20198;-53
2021/09/20 01:42:32;;;;;;;6.93;6.43;;;;;;;;;;2086353;28;20567;-50
2021/09/20 01:43:32;;;;;;;7.72;6.93;;;;;;;;;;2084287;28;20172;-55
2021/09/20 01:44:33;;;;;;;7.63;6.90;;;;;;;;;;2094835;28;20240;-51
2021/09/20 01:45:33;;;;;;;9.23;7.45;;;;;;;;;;2095175;28;20548;-59
2021/09/20 01:46:33;;;;;;;6.85;6.25;;;;;;;;;;2092671;28;20187;-55
2021/09/20 01:47:33;;;;;;;7.35;6.55;;;;;;;;;;2098467;28;20266;-55
2021/09/20 01:48:34;;;;;;;9.20;7.07;;;;;;;;;;2090237;28;20175;-55
2021/09/20 01:49:34;;;;;;;8.57;6.72;;;;;;;;;;2083488;28;20645;-56
2021/09/20 01:50:34;;;;;;;10.98;7.35;;;;;;;;;;2082214;28;20275;-55
2021/09/20 01:51:35;;;;;;;7.57;6.85;;;;;;;;;;2089209;28;20295;-52
2021/09/20 01:52:36;;;;;;;7.25;6.60;;;;;;;;;;2098474;28;20201;-57
2021/09/20 01:53:36;;;;;;;7.80;7.00;;;;;;;;;;2097991;28;20169;-51
2021/09/20 01:54:36;;;;;;;7.18;6.40;;;;;;;;;;2082611;28;20211;-54
2021/09/20 01:55:36;;;;;;;7.90;6.78;;;;;;;;;;2090161;28;20183;-60
2021/09/20 01:56:38;;;;;;;7.70;7.00;;;;;;;;;;2095957;28;20743;-59
2021/09/20 01:57:38;;;;;;;9.85;7.20;;;;;;;;;;2099121;28;20186;-60
2021/09/20 01:58:39;;;;;;;7.88;7.10;;;;;;;;;;2088417;28;20676;-52
2021/09/20 01:59:39;;;;;;;8.07;6.95;;;;;;;;;;2082862;28;20587;-55
2021/09/20 02:00:43;;;;;;;8.15;6.97;;;;;;;;;;2097836;28;20175;-51
2021/09/20 02:01:43;;;;;;;9.07;7.85;;;;;;;;;;2098570;28;20221;-53
2021/09/20 02:02:43;;;;;;;8.07;7.07;;;;;;;;;;2098476;28;20662;-56
2021/09/20 02:03:44;;;;;;;11.10;7.47;;;;;;;;;;2092893;28;20171;-51
2021/09/20 02:04:44;;;;;;;8.20;7.40;;;;;;;;;;2092676;28;20278;-54
2021/09/20 02:05:44;;;;;;;7.57;6.88;;;;;;;;;;2089568;28;20171;-55
2021/09/20 02:06:44;;;;;;;9.30;7.43;;;;;;;;;;2077528;28;20192;-56
2021/09/20 02:07:45;;;;;;;7.95;7.25;;;;;;;;;;2083295;28;20549;-59
2021/09/20 02:08:45;;;;;;;8.57;7.22;;;;;;;;;;2096522;28;20245;-58
2021/09/20 02:09:45;;;;;;;8.20;7.40;;;;;;;;;;2098300;28;20646;-57
2021/09/20 02:10:45;;;;;;;8.73;7.82;;;;;;;;;;2097844;28;20699;-60
2021/09/20 02:11:46;;;;;;;7.63;6.93;;;;;;;;;;2098119;28;20195;-58
2021/09/20 02:12:46;;;;;;;8.18;7.13;;;;;;;;;;2098204;28;20206;-57
2021/09/20 02:13:47;;;;;;;7.75;6.95;;;;;;;;;;2085701;28;20224;-58
2021/09/20 02:14:47;;;;;;;7.18;6.60;;;;;;;;;;2079672;28;20893;-56
2021/09/20 02:15:47;;;;;;;8.27;7.50;;;;;;;;;;2083505;28;20168;-58
2021/09/20 02:16:48;;;;;;;8.48;6.82;;;;;;;;;;2096123;28;20217;-55
2021/09/20 02:17:49;;;;;;;9.00;7.68;;;;;;;;;;2095041;28;20561;-55
2021/09/20 02:18:49;;;;;;;11.85;8.13;;;;;;;;;;2095213;28;20182;-57
2021/09/20 02:19:49;;;;;;;9.35;7.57;;;;;;;;;;2098131;28;20175;-54
2021/09/20 02:20:49;;;;;;;13.10;7.90;;;;;;;;;;2095405;28;20191;-55
2021/09/20 02:21:50;;;;;;;8.43;7.28;;;;;;;;;;2098157;28;20175;-58
2021/09/20 02:22:50;;;;;;;12.27;7.72;;;;;;;;;;2094860;28;20191;-57
2021/09/20 02:23:50;;;;;;;8.15;7.30;;;;;;;;;;2097281;28;20179;-55
2021/09/20 02:24:51;;;;;;;9.15;7.20;;;;;;;;;;2098321;28;20183;-57
2021/09/20 02:25:51;;;;;;;8.45;7.55;;;;;;;;;;2094691;28;20193;-57
2021/09/20 02:26:51;;;;;;;10.20;7.57;;;;;;;;;;2089438;28;20274;-56
2021/09/20 02:27:51;;;;;;;8.20;7.38;;;;;;;;;;2089580;28;20175;-53
2021/09/20 02:28:52;;;;;;;7.70;6.90;;;;;;;;;;2098042;28;20179;-60
2021/09/20 02:29:52;;;;;;;8.38;7.55;;;;;;;;;;2093383;28;20178;-58
2021/09/20 02:30:52;;;;;;;8.70;7.38;;;;;;;;;;2090898;28;20187;-58
2021/09/20 02:31:53;;;;;;;8.75;7.60;;;;;;;;;;2084345;28;20225;-56
2021/09/20 02:32:53;;;;;;;8.57;7.68;;;;;;;;;;2072853;28;20538;-56
2021/09/20 02:33:53;;;;;;;7.38;6.68;;;;;;;;;;2080088;28;20234;-58
2021/09/20 02:34:54;;;;;;;8.88;7.90;;;;;;;;;;2097884;28;20244;-59
2021/09/20 02:35:54;;;;;;;8.18;7.38;;;;;;;;;;2089916;28;20171;-57
2021/09/20 02:36:54;;;;;;;9.57;7.60;;;;;;;;;;2081005;28;20649;-57
2021/09/20 02:37:55;;;;;;;7.68;6.88;;;;;;;;;;2088087;28;20227;-53
2021/09/20 02:38:55;;;;;;;9.07;7.80;;;;;;;;;;2096198;28;20175;-53
2021/09/20 02:39:55;;;;;;;8.45;7.50;;;;;;;;;;2096658;28;20659;-57
2021/09/20 02:40:56;;;;;;;8.05;7.30;;;;;;;;;;2093430;28;20168;-56
2021/09/20 02:41:57;;;;;;;9.07;7.72;;;;;;;;;;2096191;28;20182;-55
2021/09/20 02:42:57;;;;;;;8.05;6.90;;;;;;;;;;2093555;28;20643;-57
2021/09/20 02:43:57;;;;;;;8.75;7.35;;;;;;;;;;2090330;28;20189;-54
2021/09/20 02:44:57;;;;;;;8.38;7.57;;;;;;;;;;2091212;28;20604;-52
2021/09/20 02:45:58;;;;;;;8.15;7.35;;;;;;;;;;2089878;28;20176;-56
2021/09/20 02:46:58;;;;;;;8.23;7.43;;;;;;;;;;2093466;28;20310;-56
2021/09/20 02:47:58;;;;;;;8.00;7.20;;;;;;;;;;2091013;28;20266;-56
2021/09/20 02:48:58;;;;;;;8.27;7.20;;;;;;;;;;2094212;28;20167;-57
2021/09/20 02:49:59;;;;;;;7.53;6.70;;;;;;;;;;2093931;28;20183;-56
2021/09/20 02:50:59;;;;;;;7.70;7.00;;;;;;;;;;2096717;28;20213;-59
2021/09/20 02:52:00;;;;;;;8.60;7.70;;;;;;;;;;2093428;28;20163;-58
2021/09/20 02:53:00;;;;;;;7.70;7.03;;;;;;;;;;2096478;28;20217;-59
2021/09/20 02:54:00;;;;;;;9.18;7.55;;;;;;;;;;2096884;28;20198;-57
2021/09/20 02:55:00;;;;;;;7.60;6.90;;;;;;;;;;2094726;28;20203;-56
2021/09/20 02:56:02;;;;;;;10.07;8.07;;;;;;;;;;2094292;28;20685;-58
2021/09/20 02:57:02;;;;;;;8.02;7.22;;;;;;;;;;2091523;28;20186;-55
2021/09/20 02:58:02;;;;;;;9.00;7.88;;;;;;;;;;2093173;28;20186;-56
2021/09/20 02:59:03;;;;;;;7.90;7.10;;;;;;;;;;2096051;28;20175;-58
2021/09/20 03:00:04;;;;;;;8.63;7.78;;;;;;;;;;2094773;28;20564;-56
2021/09/20 03:01:04;;;;;;;8.40;7.60;;;;;;;;;;2094798;28;20205;-55
2021/09/20 03:02:05;;;;;;;7.70;7.10;;;;;;;;;;2097182;28;20178;-56
2021/09/20 03:03:08;;;;;;;8.27;7.47;;;;;;;;;;2094288;28;20175;-54
2021/09/20 03:04:08;;;;;;;7.32;6.70;;;;;;;;;;2089614;28;20172;-54
2021/09/20 03:05:09;;;;;;;9.00;7.13;;;;;;;;;;2094486;28;20599;-56
2021/09/20 03:06:09;;;;;;;8.85;7.40;;;;;;;;;;2097936;28;20553;-56
2021/09/20 03:07:09;;;;;;;8.38;7.50;;;;;;;;;;2097985;28;20635;-56
2021/09/20 03:08:09;;;;;;;11.13;8.23;;;;;;;;;;2093191;28;20172;-55
2021/09/20 03:09:09;;;;;;;8.80;7.70;;;;;;;;;;2096695;28;20597;-57
2021/09/20 03:10:10;;;;;;;8.95;7.95;;;;;;;;;;2097861;28;20253;-53
2021/09/20 03:12:14;;;;;;;7.97;7.25;;;;;;;;;;2069388;28;20724;-52
2021/09/20 03:13:15;;;;;;;8.30;7.40;;;;;;;;;;2073279;28;20173;-52
2021/09/20 03:14:15;;;;;;;8.68;7.88;;;;;;;;;;2073304;28;20500;-50
2021/09/20 03:15:15;;;;;;;8.73;7.82;;;;;;;;;;2069371;28;20236;-51
2021/09/20 03:16:16;;;;;;;8.32;7.32;;;;;;;;;;2071286;28;20188;-52
2021/09/20 03:17:16;;;;;;;9.60;7.70;;;;;;;;;;2073383;28;20168;-53
2021/09/20 03:18:16;;;;;;;8.65;7.82;;;;;;;;;;2073032;28;20700;-49
2021/09/20 03:19:16;;;;;;;8.38;7.60;;;;;;;;;;2073065;28;20191;-54
2021/09/20 03:20:17;;;;;;;8.35;7.38;;;;;;;;;;2064848;28;20185;-53
2021/09/20 03:21:19;;;;;;;8.82;7.28;;;;;;;;;;2062016;28;20176;-53
2021/09/20 03:22:19;;;;;;;8.77;7.88;;;;;;;;;;2063947;28;20178;-49
2021/09/20 03:23:20;;;;;;;8.75;7.85;;;;;;;;;;2069212;28;20209;-49
2021/09/20 03:24:20;;;;;;;9.82;7.85;;;;;;;;;;2061793;28;20180;-52
2021/09/20 03:25:20;;;;;;;8.07;7.38;;;;;;;;;;2063615;28;20204;-52
2021/09/20 03:26:21;;;;;;;8.95;8.05;;;;;;;;;;2058168;28;20181;-53
2021/09/20 03:27:21;;;;;;;8.13;7.32;;;;;;;;;;2059662;28;20205;-54
2021/09/20 03:28:21;;;;;;;10.15;7.63;;;;;;;;;;2060612;28;20200;-50
2021/09/20 03:29:22;;;;;;;9.48;7.97;;;;;;;;;;2057532;28;20179;-50
2021/09/20 03:30:22;;;;;;;8.77;7.50;;;;;;;;;;2068156;28;20205;-50
2021/09/20 03:31:22;;;;;;;9.07;8.13;;;;;;;;;;2066395;28;20767;-51
2021/09/20 03:32:23;;;;;;;8.80;8.00;;;;;;;;;;2056197;28;20170;-53
2021/09/20 03:33:23;;;;;;;8.63;7.72;;;;;;;;;;2061893;28;20818;-51
2021/09/20 03:34:23;;;;;;;9.40;7.68;;;;;;;;;;2064686;28;20244;-50
2021/09/20 03:35:24;;;;;;;8.52;7.72;;;;;;;;;;2070416;28;20544;-50
2021/09/20 03:36:24;;;;;;;8.82;8.02;;;;;;;;;;2072651;28;20547;-52
2021/09/20 03:37:24;;;;;;;8.98;7.70;;;;;;;;;;2065537;28;20546;-50
2021/09/20 03:38:25;;;;;;;8.80;7.82;;;;;;;;;;2069155;28;20188;-50
2021/09/20 03:39:25;;;;;;;9.50;8.55;;;;;;;;;;2069260;28;20221;-50
2021/09/20 03:40:25;;;;;;;9.80;8.77;;;;;;;;;;2064802;28;20182;-49
2021/09/20 03:41:26;;;;;;;8.73;7.82;;;;;;;;;;2065355;28;20173;-50
2021/09/20 03:42:26;;;;;;;8.85;7.47;;;;;;;;;;2065475;28;20730;-50
2021/09/20 03:43:26;;;;;;;11.68;8.02;;;;;;;;;;2068612;28;20541;-54
2021/09/20 03:44:26;;;;;;;8.23;7.22;;;;;;;;;;2067083;28;20174;-51
2021/09/20 03:45:27;;;;;;;9.25;8.20;;;;;;;;;;2058506;28;20290;-50
2021/09/20 03:46:27;;;;;;;9.38;7.75;;;;;;;;;;2057762;28;20261;-49
2021/09/20 03:47:27;;;;;;;9.10;8.20;;;;;;;;;;2067718;28;20178;-50
2021/09/20 03:48:27;;;;;;;9.95;8.23;;;;;;;;;;2066442;28;20215;-50
2021/09/20 03:49:28;;;;;;;9.50;7.75;;;;;;;;;;2066091;28;20170;-51
2021/09/20 03:50:28;;;;;;;9.88;8.43;;;;;;;;;;2065664;28;20268;-51
2021/09/20 03:51:28;;;;;;;8.25;7.45;;;;;;;;;;2068797;28;20291;-50
2021/09/20 03:52:29;;;;;;;10.98;8.50;;;;;;;;;;2052574;28;20194;-53
2021/09/20 03:53:29;;;;;;;8.27;7.57;;;;;;;;;;2062181;28;20671;-50
2021/09/20 03:54:29;;;;;;;8.93;7.05;;;;;;;;;;2067358;28;20209;-51
2021/09/20 03:55:29;;;;;;;10.05;8.00;;;;;;;;;;2075388;28;20248;-50
2021/09/20 03:56:30;;;;;;;8.23;7.50;;;;;;;;;;2064355;28;20648;-49
2021/09/20 03:57:30;;;;;;;8.77;7.88;;;;;;;;;;2072834;28;20248;-48
2021/09/20 03:58:30;;;;;;;8.43;7.53;;;;;;;;;;2064763;28;20218;-52
2021/09/20 03:59:31;;;;;;;9.38;8.48;;;;;;;;;;2072694;28;20240;-50
2021/09/20 04:00:31;;;;;;;9.60;8.38;;;;;;;;;;2070184;28;20194;-48
2021/09/20 04:01:31;;;;;;;10.27;8.40;;;;;;;;;;2073044;28;20189;-54
2021/09/20 04:02:32;;;;;;;13.45;9.15;;;;;;;;;;2056444;28;20179;-49
2021/09/20 04:03:32;;;;;;;9.70;8.07;;;;;;;;;;2060679;28;20217;-49
2021/09/20 04:04:32;;;;;;;9.82;8.82;;;;;;;;;;2069417;28;20228;-50
2021/09/20 04:05:32;;;;;;;9.73;8.68;;;;;;;;;;2074769;28;20226;-49
2021/09/20 04:06:33;;;;;;;8.40;7.50;;;;;;;;;;2066358;28;20201;-51
2021/09/20 04:07:36;;;;;;;9.55;7.93;;;;;;;;;;2073803;28;20181;-51
2021/09/20 04:08:36;;;;;;;9.50;8.50;;;;;;;;;;2066029;28;20610;-52
2021/09/20 04:09:37;;;;;;;9.55;8.50;;;;;;;;;;2067187;28;20192;-51
2021/09/20 04:10:38;;;;;;;8.80;7.97;;;;;;;;;;2064134;28;20168;-56
2021/09/20 04:11:40;;;;;;;9.13;8.32;;;;;;;;;;2051104;28;20273;-55
2021/09/20 04:12:44;;;;;;;10.93;8.32;;;;;;;;;;2063322;28;20182;-57
2021/09/20 04:13:44;;;;;;;10.38;9.10;;;;;;;;;;2063268;28;20246;-52
2021/09/20 04:14:45;;;;;;;10.93;8.70;;;;;;;;;;2066454;28;20248;-51
2021/09/20 04:15:45;;;;;;;9.00;8.10;;;;;;;;;;2060430;28;20174;-52
2021/09/20 04:16:45;;;;;;;10.55;8.50;;;;;;;;;;2058787;28;20312;-52
2021/09/20 04:17:45;;;;;;;12.73;9.27;;;;;;;;;;2067165;28;20178;-50
2021/09/20 04:18:46;;;;;;;9.23;8.32;;;;;;;;;;2068044;28;20161;-51
2021/09/20 04:19:46;;;;;;;11.73;9.05;;;;;;;;;;2067841;28;20253;-51
2021/09/20 04:20:48;;;;;;;9.10;8.20;;;;;;;;;;2069217;28;20184;-56
2021/09/20 04:21:48;;;;;;;9.82;8.25;;;;;;;;;;2061948;28;20213;-55
2021/09/20 04:22:49;;;;;;;8.73;7.93;;;;;;;;;;2054482;28;20234;-52
2021/09/20 04:23:49;;;;;;;10.45;8.18;;;;;;;;;;2073956;28;20647;-56
2021/09/20 04:24:53;;;;;;;10.70;8.20;;;;;;;;;;2067550;28;20210;-56
2021/09/20 04:25:53;;;;;;;9.88;8.85;;;;;;;;;;2069163;28;20168;-56
2021/09/20 04:26:54;;;;;;;12.68;8.55;;;;;;;;;;2067133;28;20181;-53
2021/09/20 04:27:54;;;;;;;9.82;8.90;;;;;;;;;;2067419;28;20212;-52
2021/09/20 04:28:54;;;;;;;11.95;8.52;;;;;;;;;;2065458;28;20264;-54
2021/09/20 04:29:55;;;;;;;9.38;8.48;;;;;;;;;;2069175;28;20247;-53
2021/09/20 04:30:55;;;;;;;11.82;8.95;;;;;;;;;;2068305;28;20184;-55
2021/09/20 04:31:55;;;;;;;9.25;8.25;;;;;;;;;;2070660;28;20279;-56
2021/09/20 04:32:56;;;;;;;9.77;8.60;;;;;;;;;;2070526;28;20222;-53
2021/09/20 04:33:56;;;;;;;9.88;8.85;;;;;;;;;;2071004;28;20165;-54
2021/09/20 04:34:56;;;;;;;10.00;8.57;;;;;;;;;;2070198;28;20208;-56
2021/09/20 04:35:57;;;;;;;9.88;7.70;;;;;;;;;;2072329;28;20182;-57
2021/09/20 04:36:57;;;;;;;9.57;8.25;;;;;;;;;;2070105;28;20180;-51
2021/09/20 04:37:57;;;;;;;10.10;9.10;;;;;;;;;;2071376;28;20251;-53
2021/09/20 04:38:58;;;;;;;9.60;8.60;;;;;;;;;;2061131;28;20242;-54
2021/09/20 04:39:58;;;;;;;9.20;7.63;;;;;;;;;;2049622;28;20770;-54
2021/09/20 04:40:58;;;;;;;9.32;8.40;;;;;;;;;;2060734;28;20201;-50
2021/09/20 04:42:00;;;;;;;11.95;8.82;;;;;;;;;;2070324;28;20193;-54
2021/09/20 04:43:01;;;;;;;9.32;8.45;;;;;;;;;;2072713;28;20167;-52
2021/09/20 04:44:01;;;;;;;9.18;7.85;;;;;;;;;;2069318;28;20201;-47
2021/09/20 04:45:02;;;;;;;9.90;7.93;;;;;;;;;;2070171;28;20165;-52
2021/09/20 04:46:02;;;;;;;9.68;8.13;;;;;;;;;;2071267;28;20271;-54
2021/09/20 04:47:02;;;;;;;9.07;7.90;;;;;;;;;;2070129;28;20183;-54
2021/09/20 04:48:03;;;;;;;8.27;7.47;;;;;;;;;;2070769;28;20178;-53
2021/09/20 04:49:03;;;;;;;8.95;7.60;;;;;;;;;;2067563;28;20172;-51
2021/09/20 04:50:04;;;;;;;8.30;7.18;;;;;;;;;;2067445;28;20187;-54
2021/09/20 04:51:04;;;;;;;8.88;7.70;;;;;;;;;;2072030;28;20225;-51
2021/09/20 04:52:05;;;;;;;9.00;8.07;;;;;;;;;;2071349;28;20575;-50
2021/09/20 04:53:05;;;;;;;9.40;7.80;;;;;;;;;;2069957;28;20166;-52
2021/09/20 04:54:06;;;;;;;9.10;7.95;;;;;;;;;;2058883;28;20170;-52
2021/09/20 04:55:06;;;;;;;8.82;7.93;;;;;;;;;;2052673;28;20181;-54
2021/09/20 04:56:06;;;;;;;8.75;7.72;;;;;;;;;;2053110;28;20187;-53
2021/09/20 04:57:07;;;;;;;9.18;8.15;;;;;;;;;;2063947;28;20174;-53
2021/09/20 04:58:08;;;;;;;9.93;7.78;;;;;;;;;;2069596;28;20822;-57
2021/09/20 04:59:08;;;;;;;9.35;7.88;;;;;;;;;;2059928;28;20166;-53
2021/09/20 05:00:10;;;;;;;10.02;8.52;;;;;;;;;;2049820;28;20183;-55
2021/09/20 05:01:10;;;;;;;9.50;8.20;;;;;;;;;;2054731;28;20170;-57
2021/09/20 05:02:11;;;;;;;8.75;7.80;;;;;;;;;;2063004;28;20172;-57
2021/09/20 05:03:11;;;;;;;12.73;8.35;;;;;;;;;;2058831;28;20663;-56
2021/09/20 05:04:14;;;;;;;8.88;7.90;;;;;;;;;;2076375;28;20645;-57
2021/09/20 05:05:24;;;;;;;8.63;6.88;;;;;;;;;;2066440;28;20186;-52
2021/09/20 05:06:27;;;;;;;7.80;7.03;;;;;;;;;;2059610;28;20170;-55
2021/09/20 05:07:28;;;;;;;9.32;8.35;;;;;;;;;;2069810;28;20177;-58
2021/09/20 05:08:32;;;;;;;17.30;14.82;;;;;;;;;;2067188;28;20176;-55
2021/09/20 05:09:33;;;;;;;9.18;8.20;;;;;;;;;;2067278;28;20177;-49
2021/09/20 05:10:33;;;;;;;10.50;8.43;;;;;;;;;;2060216;28;20378;-57
2021/09/20 05:11:33;;;;;;;13.18;10.85;;;;;;;;;;2066958;28;20201;-55
2021/09/20 05:12:34;;;;;;;9.77;8.52;;;;;;;;;;2076196;28;20169;-51
2021/09/20 05:13:34;;;;;;;9.65;8.70;;;;;;;;;;2069363;28;20240;-53
2021/09/20 05:14:34;;;;;;;11.43;8.05;;;;;;;;;;2072033;28;20283;-55
2021/09/20 05:15:35;;;;;;;8.52;7.65;;;;;;;;;;2065654;28;20196;-49
2021/09/20 05:16:35;;;;;;;10.18;9.18;;;;;;;;;;2073844;28;20829;-51
2021/09/20 05:17:35;;;;;;;9.50;8.25;;;;;;;;;;2066796;28;20173;-51
2021/09/20 05:18:36;;;;;;;9.55;7.40;;;;;;;;;;2072889;28;20172;-54
2021/09/20 05:19:36;;;;;;;8.80;7.90;;;;;;;;;;2067650;28;20177;-55
2021/09/20 05:20:36;;;;;;;10.70;8.23;;;;;;;;;;2066297;28;20170;-53
2021/09/20 05:21:36;;;;;;;10.65;9.07;;;;;;;;;;2071060;28;20193;-50
2021/09/20 05:22:37;;;;;;;9.13;8.23;;;;;;;;;;2072309;28;20159;-51
2021/09/20 05:23:37;;;;;;;10.27;7.80;;;;;;;;;;2057545;28;20214;-51
2021/09/20 05:24:40;;;;;;;10.10;8.00;;;;;;;;;;2058134;28;20174;-56
2021/09/20 05:25:45;;;;;;;11.43;9.10;;;;;;;;;;2059592;28;20178;-50
2021/09/20 05:26:45;;;;;;;10.68;8.10;;;;;;;;;;2062703;28;20181;-48
2021/09/20 05:27:46;;;;;;;10.88;9.25;;;;;;;;;;2057601;28;20197;-52
2021/09/20 05:28:46;;;;;;;8.10;7.30;;;;;;;;;;2059025;28;20556;-50
2021/09/20 05:29:46;;;;;;;10.93;8.27;;;;;;;;;;2064016;28;20169;-52
2021/09/20 05:30:47;;;;;;;10.45;7.70;;;;;;;;;;2067962;28;20181;-53
2021/09/20 05:31:47;;;;;;;8.77;7.97;;;;;;;;;;2069829;28;20197;-54
2021/09/20 05:32:47;;;;;;;9.63;7.95;;;;;;;;;;2060180;28;20285;-51
2021/09/20 05:33:47;;;;;;;8.60;7.78;;;;;;;;;;2063785;28;20232;-52
2021/09/20 05:34:48;;;;;;;8.45;7.63;;;;;;;;;;2066703;28;20205;-50
2021/09/20 05:35:48;;;;;;;8.55;7.75;;;;;;;;;;2067976;28;20696;-53
2021/09/20 05:36:49;;;;;;;8.18;7.38;;;;;;;;;;2063121;28;20181;-54
2021/09/20 05:37:49;;;;;;;8.93;7.43;;;;;;;;;;2059834;28;20178;-54
2021/09/20 05:38:49;;;;;;;11.48;8.27;;;;;;;;;;2071783;28;20256;-52
2021/09/20 05:39:50;;;;;;;7.90;7.18;;;;;;;;;;2068907;28;20260;-50
2021/09/20 05:40:50;;;;;;;13.27;10.35;;;;;;;;;;2072132;28;20231;-50
2021/09/20 05:41:50;;;;;;;9.95;9.15;;;;;;;;;;2068982;28;20205;-52
2021/09/20 05:42:56;;;;;;;9.48;8.48;;;;;;;;;;2072065;28;20193;-53
2021/09/20 05:43:57;;;;;;;8.23;7.43;;;;;;;;;;2065904;28;20205;-56
2021/09/20 05:44:57;;;;;;;8.95;7.63;;;;;;;;;;2057259;28;20174;-56
2021/09/20 05:45:58;;;;;;;9.77;7.45;;;;;;;;;;2061216;28;20248;-56
2021/09/20 05:46:58;;;;;;;8.10;7.30;;;;;;;;;;2070691;28;20189;-52
2021/09/20 05:47:59;;;;;;;8.93;7.20;;;;;;;;;;2065296;28;20173;-54
2021/09/20 05:48:59;;;;;;;7.28;6.60;;;;;;;;;;2066647;28;20557;-53
2021/09/20 05:50:00;;;;;;;7.80;6.43;;;;;;;;;;2065308;28;20190;-52
2021/09/20 05:51:00;;;;;;;7.80;7.00;;;;;;;;;;2066644;28;20177;-55
2021/09/20 05:52:00;;;;;;;8.55;7.25;;;;;;;;;;2066446;28;20208;-53
2021/09/20 05:53:01;;;;;;;7.43;6.75;;;;;;;;;;2066297;28;20305;-52
2021/09/20 05:54:01;;;;;;;8.73;7.40;;;;;;;;;;2066439;28;20181;-51
2021/09/20 05:55:02;;;;;;;8.55;6.70;;;;;;;;;;2066435;28;20619;-52
2021/09/20 05:56:02;;;;;;;7.55;6.75;;;;;;;;;;2065722;28;20988;-53
2021/09/20 05:57:02;;;;;;;9.32;6.63;;;;;;;;;;2065857;28;20181;-54
2021/09/20 05:58:03;;;;;;;8.02;7.22;;;;;;;;;;2065527;28;20173;-51
2021/09/20 05:59:03;;;;;;;7.70;7.00;;;;;;;;;;2066127;28;20162;-49
2021/09/20 06:00:04;;;;;;;7.55;6.55;;;;;;;;;;2066276;28;20179;-52
2021/09/20 06:01:11;;;;;;;7.55;6.78;;;;;;;;;;2065154;28;20162;-51
2021/09/20 06:02:11;;;;;;;7.63;6.82;;;;;;;;;;2065373;28;20193;-51
2021/09/20 06:03:11;;;;;;;10.13;7.15;;;;;;;;;;2057257;28;20178;-51